sensor_id;sensor_type;location;lat;lon;timestamp;pressure;altitude;pressure_sealevel;temperature;humidity
65557;BME280;52200;53.490;14.376;2023-03-13T00:03:51;100331.25;;;2.31;100.00
65557;BME280;52200;53.490;14.376;2023-03-13T00:06:17;100328.75;;;2.55;100.00
65557;BME280;52200;53.490;14.376;2023-03-13T00:08:42;100323.72;;;2.45;100.00
65557;BME280;52200;53.490;14.376;2023-03-13T00:11:13;100323.72;;;2.74;100.00
65557;BME280;52200;53.490;14.376;2023-03-13T00:13:39;100333.75;;;2.77;100.00
65557;BME280;52200;53.490;14.376;2023-03-13T00:16:10;100328.75;;;2.52;100.00
65557;BME280;52200;53.490;14.376;2023-03-13T00:18:36;100331.28;;;2.60;100.00
65557;BME280;52200;53.490;14.376;2023-03-13T00:21:06;100328.72;;;2.77;100.00
65557;BME280;52200;53.490;14.376;2023-03-13T00:23:34;100319.56;;;2.70;100.00
65557;BME280;52200;53.490;14.376;2023-03-13T00:26:05;100318.72;;;2.57;100.00
65557;BME280;52200;53.490;14.376;2023-03-13T00:28:32;100315.38;;;2.69;100.00
65557;BME280;52200;53.490;14.376;2023-03-13T00:33:34;100312.03;;;2.67;100.00
65557;BME280;52200;53.490;14.376;2023-03-13T00:36:03;100313.63;;;3.11;100.00
65557;BME280;52200;53.490;14.376;2023-03-13T00:38:29;100315.34;;;2.90;100.00
65557;BME280;52200;53.490;14.376;2023-03-13T00:41:18;100318.69;;;2.83;100.00
65557;BME280;52200;53.490;14.376;2023-03-13T00:43:45;100307.81;;;2.94;100.00
65557;BME280;52200;53.490;14.376;2023-03-13T00:46:14;100307.75;;;3.14;100.00
65557;BME280;52200;53.490;14.376;2023-03-13T00:48:39;100299.44;;;3.07;100.00
65557;BME280;52200;53.490;14.376;2023-03-13T00:51:06;100292.66;;;3.31;100.00
65557;BME280;52200;53.490;14.376;2023-03-13T00:53:32;100291.78;;;3.35;100.00
65557;BME280;52200;53.490;14.376;2023-03-13T00:56:00;100291.78;;;3.35;100.00
65557;BME280;52200;53.490;14.376;2023-03-13T00:58:28;100292.63;;;3.35;100.00
65557;BME280;52200;53.490;14.376;2023-03-13T01:00:54;100300.97;;;3.42;100.00
65557;BME280;52200;53.490;14.376;2023-03-13T01:03:21;100299.25;;;3.52;100.00
65557;BME280;52200;53.490;14.376;2023-03-13T01:05:59;100300.94;;;3.53;100.00
65557;BME280;52200;53.490;14.376;2023-03-13T01:08:25;100304.28;;;3.50;100.00
65557;BME280;52200;53.490;14.376;2023-03-13T01:11:03;100298.38;;;3.58;100.00
65557;BME280;52200;53.490;14.376;2023-03-13T01:13:30;100297.53;;;3.66;100.00
65557;BME280;52200;53.490;14.376;2023-03-13T01:16:10;100286.72;;;3.47;100.00
65557;BME280;52200;53.490;14.376;2023-03-13T01:18:37;100289.19;;;3.55;100.00
65557;BME280;52200;53.490;14.376;2023-03-13T01:21:03;100287.59;;;3.37;100.00
65557;BME280;52200;53.490;14.376;2023-03-13T01:23:29;100285.88;;;3.44;100.00
65557;BME280;52200;53.490;14.376;2023-03-13T01:25:55;100285.84;;;3.50;100.00
65557;BME280;52200;53.490;14.376;2023-03-13T01:28:22;100286.63;;;3.66;100.00
65557;BME280;52200;53.490;14.376;2023-03-13T01:30:48;100281.59;;;3.61;100.00
65557;BME280;52200;53.490;14.376;2023-03-13T01:33:14;100270.75;;;3.56;100.00
65557;BME280;52200;53.490;14.376;2023-03-13T01:35:40;100264.88;;;3.62;100.00
65557;BME280;52200;53.490;14.376;2023-03-13T01:38:06;100269.84;;;3.69;100.00
65557;BME280;52200;53.490;14.376;2023-03-13T01:40:39;100259.75;;;3.80;100.00
65557;BME280;52200;53.490;14.376;2023-03-13T01:43:32;100253.88;;;3.83;100.00
65557;BME280;52200;53.490;14.376;2023-03-13T01:48:45;100238.00;;;3.78;100.00
65557;BME280;52200;53.490;14.376;2023-03-13T01:56:52;100225.28;;;3.98;100.00
65557;BME280;52200;53.490;14.376;2023-03-13T01:59:30;100231.03;;;4.12;100.00
65557;BME280;52200;53.490;14.376;2023-03-13T02:01:59;100225.13;;;4.18;100.00
65557;BME280;52200;53.490;14.376;2023-03-13T02:04:30;100219.22;;;4.20;100.00
65557;BME280;52200;53.490;14.376;2023-03-13T02:07:02;100222.75;;;4.01;100.00
65557;BME280;52200;53.490;14.376;2023-03-13T02:09:31;100219.47;;;3.91;100.00
65557;BME280;52200;53.490;14.376;2023-03-13T02:12:16;100210.28;;;3.87;100.00
65557;BME280;52200;53.490;14.376;2023-03-13T02:14:45;100208.50;;;3.98;100.00
65557;BME280;52200;53.490;14.376;2023-03-13T02:17:12;100211.84;;;4.02;100.00
65557;BME280;52200;53.490;14.376;2023-03-13T02:19:44;100213.31;;;4.23;100.00
65557;BME280;52200;53.490;14.376;2023-03-13T02:27:19;100203.88;;;4.50;100.00
65557;BME280;52200;53.490;14.376;2023-03-13T02:29:44;100207.31;;;4.41;100.00
65557;BME280;52200;53.490;14.376;2023-03-13T02:32:10;100210.03;;;4.18;100.00
65557;BME280;52200;53.490;14.376;2023-03-13T02:34:38;100205.88;;;4.15;100.00
65557;BME280;52200;53.490;14.376;2023-03-13T02:37:06;100205.94;;;4.04;100.00
65557;BME280;52200;53.490;14.376;2023-03-13T02:39:38;100201.00;;;3.95;100.00
65557;BME280;52200;53.490;14.376;2023-03-13T02:42:06;100208.44;;;4.08;100.00
65557;BME280;52200;53.490;14.376;2023-03-13T02:44:40;100201.56;;;4.30;100.00
65557;BME280;52200;53.490;14.376;2023-03-13T02:47:05;100207.31;;;4.41;100.00
65557;BME280;52200;53.490;14.376;2023-03-13T02:49:31;100204.13;;;4.20;100.00
65557;BME280;52200;53.490;14.376;2023-03-13T02:51:59;100199.94;;;4.26;100.00
65557;BME280;52200;53.490;14.376;2023-03-13T02:54:32;100199.84;;;4.30;100.00
65557;BME280;52200;53.490;14.376;2023-03-13T02:57:01;100191.44;;;4.36;100.00
65557;BME280;52200;53.490;14.376;2023-03-13T02:59:27;100196.41;;;4.39;100.00
65557;BME280;52200;53.490;14.376;2023-03-13T03:01:53;100202.31;;;4.36;100.00
65557;BME280;52200;53.490;14.376;2023-03-13T03:04:23;100197.19;;;4.47;100.00
65557;BME280;52200;53.490;14.376;2023-03-13T03:06:49;100192.44;;;4.19;100.00
65557;BME280;52200;53.490;14.376;2023-03-13T03:09:16;100185.81;;;4.12;100.00
65557;BME280;52200;53.490;14.376;2023-03-13T03:11:41;100176.44;;;4.25;100.00
65557;BME280;52200;53.490;14.376;2023-03-13T03:14:08;100180.72;;;4.18;100.00
65557;BME280;52200;53.490;14.376;2023-03-13T03:16:34;100172.50;;;4.01;100.00
65557;BME280;52200;53.490;14.376;2023-03-13T03:18:59;100172.34;;;4.19;100.00
65557;BME280;52200;53.490;14.376;2023-03-13T03:21:25;100172.22;;;4.30;100.00
65557;BME280;52200;53.490;14.376;2023-03-13T03:23:50;100176.44;;;4.28;100.00
65557;BME280;52200;53.490;14.376;2023-03-13T03:26:16;100168.03;;;4.31;100.00
65557;BME280;52200;53.490;14.376;2023-03-13T03:28:42;100163.94;;;4.19;100.00
65557;BME280;52200;53.490;14.376;2023-03-13T03:31:11;100161.41;;;4.22;100.00
65557;BME280;52200;53.490;14.376;2023-03-13T03:33:37;100152.28;;;4.10;100.00
65557;BME280;52200;53.490;14.376;2023-03-13T03:36:08;100146.31;;;4.20;100.00
65557;BME280;52200;53.490;14.376;2023-03-13T03:38:34;100135.47;;;4.15;100.00
65557;BME280;52200;53.490;14.376;2023-03-13T03:41:00;100140.38;;;4.31;100.00
65557;BME280;52200;53.490;14.376;2023-03-13T03:43:25;100130.34;;;4.28;100.00
65557;BME280;52200;53.490;14.376;2023-03-13T03:45:51;100128.66;;;4.27;100.00
65557;BME280;52200;53.490;14.376;2023-03-13T03:48:16;100132.63;;;4.48;100.00
65557;BME280;52200;53.490;14.376;2023-03-13T03:50:42;100128.47;;;4.45;100.00
65557;BME280;52200;53.490;14.376;2023-03-13T03:53:08;100120.94;;;4.44;100.00
65557;BME280;52200;53.490;14.376;2023-03-13T03:55:33;100111.00;;;4.34;100.00
65557;BME280;52200;53.490;14.376;2023-03-13T03:57:59;100108.66;;;4.17;100.00
65557;BME280;52200;53.490;14.376;2023-03-13T04:00:24;100108.59;;;4.24;100.00
65557;BME280;52200;53.490;14.376;2023-03-13T04:02:52;100101.03;;;4.25;100.00
65557;BME280;52200;53.490;14.376;2023-03-13T04:05:18;100108.44;;;4.38;100.00
65557;BME280;52200;53.490;14.376;2023-03-13T04:07:44;100099.19;;;4.41;100.00
65557;BME280;52200;53.490;14.376;2023-03-13T04:10:10;100092.38;;;4.51;100.00
65557;BME280;52200;53.490;14.376;2023-03-13T04:12:35;100085.78;;;4.39;100.00
65557;BME280;52200;53.490;14.376;2023-03-13T04:15:01;100087.44;;;4.43;100.00
65557;BME280;52200;53.490;14.376;2023-03-13T04:17:26;100088.06;;;4.58;100.00
65557;BME280;52200;53.490;14.376;2023-03-13T04:19:52;100082.31;;;4.48;100.00
65557;BME280;52200;53.490;14.376;2023-03-13T04:22:17;100078.28;;;4.36;100.00
65557;BME280;52200;53.490;14.376;2023-03-13T04:24:42;100075.41;;;4.64;100.00
65557;BME280;52200;53.490;14.376;2023-03-13T04:27:08;100071.28;;;4.60;100.00
65557;BME280;52200;53.490;14.376;2023-03-13T04:29:34;100066.31;;;4.57;100.00
65557;BME280;52200;53.490;14.376;2023-03-13T04:32:00;100059.97;;;4.23;100.00
65557;BME280;52200;53.490;14.376;2023-03-13T04:34:25;100062.28;;;4.43;100.00
65557;BME280;52200;53.490;14.376;2023-03-13T04:36:50;100063.06;;;4.48;100.00
65557;BME280;52200;53.490;14.376;2023-03-13T04:39:16;100053.16;;;4.34;100.00
65557;BME280;52200;53.490;14.376;2023-03-13T04:41:42;100049.50;;;4.59;100.00
65557;BME280;52200;53.490;14.376;2023-03-13T04:44:07;100053.88;;;4.43;100.00
65557;BME280;52200;53.490;14.376;2023-03-13T04:46:32;100054.03;;;4.33;100.00
65557;BME280;52200;53.490;14.376;2023-03-13T04:48:58;100051.59;;;4.26;100.00
65557;BME280;52200;53.490;14.376;2023-03-13T04:51:24;100048.16;;;4.31;100.00
65557;BME280;52200;53.490;14.376;2023-03-13T04:53:49;100036.06;;;4.63;100.00
65557;BME280;52200;53.490;14.376;2023-03-13T04:56:23;100034.53;;;4.51;100.00
65557;BME280;52200;53.490;14.376;2023-03-13T04:58:50;100027.72;;;4.59;100.00
65557;BME280;52200;53.490;14.376;2023-03-13T05:01:15;100019.38;;;4.54;100.00
65557;BME280;52200;53.490;14.376;2023-03-13T05:03:41;100012.69;;;4.51;100.00
65557;BME280;52200;53.490;14.376;2023-03-13T05:06:06;100010.09;;;4.58;100.00
65557;BME280;52200;53.490;14.376;2023-03-13T05:08:32;100010.91;;;4.63;100.00
65557;BME280;52200;53.490;14.376;2023-03-13T05:10:57;99999.91;;;4.68;100.00
65557;BME280;52200;53.490;14.376;2023-03-13T05:13:23;99997.28;;;4.75;100.00
65557;BME280;52200;53.490;14.376;2023-03-13T05:15:48;99999.22;;;4.57;100.00
65557;BME280;52200;53.490;14.376;2023-03-13T05:18:13;99990.63;;;4.72;100.00
65557;BME280;52200;53.490;14.376;2023-03-13T05:20:39;99997.50;;;4.61;100.00
65557;BME280;52200;53.490;14.376;2023-03-13T05:23:04;99984.09;;;4.59;100.00
65557;BME280;52200;53.490;14.376;2023-03-13T05:25:30;99985.69;;;4.66;100.00
65557;BME280;52200;53.490;14.376;2023-03-13T05:27:55;99979.56;;;4.84;100.00
65557;BME280;52200;53.490;14.376;2023-03-13T05:30:21;99957.13;;;4.68;100.00
65557;BME280;52200;53.490;14.376;2023-03-13T05:32:46;99956.31;;;4.68;100.00
65557;BME280;52200;53.490;14.376;2023-03-13T05:35:11;99962.38;;;4.55;100.00
65557;BME280;52200;53.490;14.376;2023-03-13T05:37:37;99967.34;;;4.58;100.00
65557;BME280;52200;53.490;14.376;2023-03-13T05:40:02;99950.63;;;4.57;100.00
65557;BME280;52200;53.490;14.376;2023-03-13T05:42:28;99954.78;;;4.59;100.00
65557;BME280;52200;53.490;14.376;2023-03-13T05:44:54;99947.84;;;4.72;100.00
65557;BME280;52200;53.490;14.376;2023-03-13T05:47:19;99942.06;;;4.67;100.00
65557;BME280;52200;53.490;14.376;2023-03-13T05:49:44;99932.03;;;4.64;100.00
65557;BME280;52200;53.490;14.376;2023-03-13T05:52:10;99929.44;;;4.72;100.00
65557;BME280;52200;53.490;14.376;2023-03-13T05:54:35;99920.00;;;4.84;100.00
65557;BME280;52200;53.490;14.376;2023-03-13T05:57:01;99912.28;;;4.95;100.00
65557;BME280;52200;53.490;14.376;2023-03-13T05:59:26;99904.53;;;5.06;100.00
65557;BME280;52200;53.490;14.376;2023-03-13T06:01:52;99896.44;;;4.89;100.00
65557;BME280;52200;53.490;14.376;2023-03-13T06:04:17;99890.41;;;4.99;100.00
65557;BME280;52200;53.490;14.376;2023-03-13T06:06:42;99884.50;;;5.00;100.00
65557;BME280;52200;53.490;14.376;2023-03-13T06:09:08;99879.25;;;5.12;100.00
65557;BME280;52200;53.490;14.376;2023-03-13T06:11:36;99879.25;;;5.12;100.00
65557;BME280;52200;53.490;14.376;2023-03-13T06:14:02;99869.09;;;5.17;100.00
65557;BME280;52200;53.490;14.376;2023-03-13T06:16:27;99865.88;;;5.10;100.00
65557;BME280;52200;53.490;14.376;2023-03-13T06:18:52;99863.13;;;5.23;100.00
65557;BME280;52200;53.490;14.376;2023-03-13T06:21:18;99860.09;;;5.04;100.00
65557;BME280;52200;53.490;14.376;2023-03-13T06:23:43;99858.63;;;4.92;100.00
65557;BME280;52200;53.490;14.376;2023-03-13T06:26:09;99857.28;;;5.21;100.00
65557;BME280;52200;53.490;14.376;2023-03-13T06:28:34;99854.72;;;5.22;100.00
65557;BME280;52200;53.490;14.376;2023-03-13T06:31:04;99857.28;;;5.21;100.00
65557;BME280;52200;53.490;14.376;2023-03-13T06:33:30;99843.78;;;5.25;100.00
65557;BME280;52200;53.490;14.376;2023-03-13T06:35:56;99837.00;;;5.27;100.00
65557;BME280;52200;53.490;14.376;2023-03-13T06:38:23;99846.19;;;5.31;100.00
65557;BME280;52200;53.490;14.376;2023-03-13T06:40:49;99843.59;;;5.34;100.00
65557;BME280;52200;53.490;14.376;2023-03-13T06:43:14;99828.91;;;5.55;100.00
65557;BME280;52200;53.490;14.376;2023-03-13T06:45:39;99833.78;;;5.62;100.00
65557;BME280;52200;53.490;14.376;2023-03-13T06:48:05;99820.22;;;5.70;100.00
65557;BME280;52200;53.490;14.376;2023-03-13T06:50:30;99820.44;;;5.59;100.00
65557;BME280;52200;53.490;14.376;2023-03-13T06:52:56;99816.66;;;5.78;100.00
65557;BME280;52200;53.490;14.376;2023-03-13T06:55:24;99811.50;;;5.44;100.00
65557;BME280;52200;53.490;14.376;2023-03-13T06:57:51;99809.41;;;5.63;100.00
65557;BME280;52200;53.490;14.376;2023-03-13T07:00:17;99812.81;;;5.62;100.00
65557;BME280;52200;53.490;14.376;2023-03-13T07:02:43;99796.53;;;5.77;100.00
65557;BME280;52200;53.490;14.376;2023-03-13T07:05:08;99795.78;;;5.73;100.00
65557;BME280;52200;53.490;14.376;2023-03-13T07:07:34;99790.88;;;5.67;100.00
65557;BME280;52200;53.490;14.376;2023-03-13T07:09:59;99788.09;;;5.79;100.00
65557;BME280;52200;53.490;14.376;2023-03-13T07:12:25;99785.84;;;5.67;100.00
65557;BME280;52200;53.490;14.376;2023-03-13T07:14:50;99784.31;;;5.60;100.00
65557;BME280;52200;53.490;14.376;2023-03-13T07:17:16;99782.09;;;5.84;100.00
65557;BME280;52200;53.490;14.376;2023-03-13T07:19:41;99772.09;;;5.80;100.00
65557;BME280;52200;53.490;14.376;2023-03-13T07:22:07;99762.69;;;5.87;100.00
65557;BME280;52200;53.490;14.376;2023-03-13T07:24:32;99758.31;;;5.95;100.00
65557;BME280;52200;53.490;14.376;2023-03-13T07:26:57;99758.00;;;6.09;100.00
65557;BME280;52200;53.490;14.376;2023-03-13T07:29:23;99754.94;;;6.31;100.00
65557;BME280;52200;53.490;14.376;2023-03-13T07:31:49;99737.44;;;6.25;100.00
65557;BME280;52200;53.490;14.376;2023-03-13T07:34:14;99734.06;;;6.26;100.00
65557;BME280;52200;53.490;14.376;2023-03-13T07:36:40;99732.78;;;6.44;100.00
65557;BME280;52200;53.490;14.376;2023-03-13T07:39:06;99721.59;;;6.21;100.00
65557;BME280;52200;53.490;14.376;2023-03-13T07:41:32;99715.06;;;6.14;100.00
65557;BME280;52200;53.490;14.376;2023-03-13T07:43:57;99704.28;;;6.07;100.00
65557;BME280;52200;53.490;14.376;2023-03-13T07:46:23;99699.06;;;6.13;100.00
65557;BME280;52200;53.490;14.376;2023-03-13T07:48:49;99692.00;;;6.28;100.00
65557;BME280;52200;53.490;14.376;2023-03-13T07:51:20;99696.56;;;6.47;100.00
65557;BME280;52200;53.490;14.376;2023-03-13T07:53:46;99692.03;;;6.26;100.00
65557;BME280;52200;53.490;14.376;2023-03-13T07:56:16;99703.09;;;6.54;100.00
65557;BME280;52200;53.490;14.376;2023-03-13T07:58:43;99708.34;;;6.77;100.00
65557;BME280;52200;53.490;14.376;2023-03-13T08:01:16;99697.97;;;6.88;100.00
65557;BME280;52200;53.490;14.376;2023-03-13T08:03:42;99697.63;;;6.69;100.00
65557;BME280;52200;53.490;14.376;2023-03-13T08:06:13;99689.34;;;6.64;100.00
65557;BME280;52200;53.490;14.376;2023-03-13T08:08:39;99689.53;;;6.58;100.00
65557;BME280;52200;53.490;14.376;2023-03-13T08:11:07;99686.66;;;6.70;100.00
65557;BME280;52200;53.490;14.376;2023-03-13T08:13:34;99681.03;;;6.92;100.00
65557;BME280;52200;53.490;14.376;2023-03-13T08:16:08;99676.22;;;6.83;100.00
65557;BME280;52200;53.490;14.376;2023-03-13T08:18:35;99667.19;;;7.04;100.00
65557;BME280;52200;53.490;14.376;2023-03-13T08:21:11;99658.53;;;7.13;100.00
65557;BME280;52200;53.490;14.376;2023-03-13T08:23:37;99652.72;;;7.10;100.00
65557;BME280;52200;53.490;14.376;2023-03-13T08:26:06;99652.06;;;7.04;100.00
65557;BME280;52200;53.490;14.376;2023-03-13T08:28:33;99649.94;;;6.90;100.00
65557;BME280;52200;53.490;14.376;2023-03-13T08:31:04;99641.50;;;6.91;100.00
65557;BME280;52200;53.490;14.376;2023-03-13T08:33:30;99636.50;;;6.89;100.00
65557;BME280;52200;53.490;14.376;2023-03-13T08:35:55;99626.16;;;6.97;100.00
65557;BME280;52200;53.490;14.376;2023-03-13T08:38:21;99626.78;;;6.75;100.00
65557;BME280;52200;53.490;14.376;2023-03-13T08:40:46;99608.75;;;6.88;100.00
65557;BME280;52200;53.490;14.376;2023-03-13T08:43:11;99598.53;;;6.92;100.00
65557;BME280;52200;53.490;14.376;2023-03-13T08:45:37;99597.56;;;6.97;100.00
65557;BME280;52200;53.490;14.376;2023-03-13T08:48:02;99588.97;;;7.02;100.00
65557;BME280;52200;53.490;14.376;2023-03-13T08:50:28;99580.50;;;7.05;100.00
65557;BME280;52200;53.490;14.376;2023-03-13T08:52:54;99574.75;;;7.00;100.00
65557;BME280;52200;53.490;14.376;2023-03-13T08:55:19;99563.13;;;6.96;100.00
65557;BME280;52200;53.490;14.376;2023-03-13T08:57:44;99566.50;;;6.94;100.00
65557;BME280;52200;53.490;14.376;2023-03-13T09:00:10;99556.56;;;7.17;100.00
65557;BME280;52200;53.490;14.376;2023-03-13T09:02:37;99560.56;;;7.22;100.00
65557;BME280;52200;53.490;14.376;2023-03-13T09:05:03;99554.75;;;6.93;100.00
65557;BME280;52200;53.490;14.376;2023-03-13T09:07:28;99543.16;;;7.15;100.00
65557;BME280;52200;53.490;14.376;2023-03-13T09:09:54;99541.28;;;7.20;100.00
65557;BME280;52200;53.490;14.376;2023-03-13T09:12:19;99537.84;;;7.22;100.00
65557;BME280;52200;53.490;14.376;2023-03-13T09:14:47;99536.50;;;7.12;100.00
65557;BME280;52200;53.490;14.376;2023-03-13T09:17:12;99523.63;;;7.20;100.00
65557;BME280;52200;53.490;14.376;2023-03-13T09:19:38;99524.28;;;7.25;100.00
65557;BME280;52200;53.490;14.376;2023-03-13T09:22:03;99522.16;;;7.39;100.00
65557;BME280;52200;53.490;14.376;2023-03-13T09:24:29;99520.44;;;7.40;100.00
65557;BME280;52200;53.490;14.376;2023-03-13T09:26:54;99511.84;;;7.46;100.00
65557;BME280;52200;53.490;14.376;2023-03-13T09:29:19;99516.09;;;7.43;100.00
65557;BME280;52200;53.490;14.376;2023-03-13T09:31:45;99503.69;;;7.63;100.00
65557;BME280;52200;53.490;14.376;2023-03-13T09:34:10;99508.44;;;7.47;100.00
65557;BME280;52200;53.490;14.376;2023-03-13T09:36:36;99501.53;;;7.52;100.00
65557;BME280;52200;53.490;14.376;2023-03-13T09:39:01;99500.41;;;7.35;100.00
65557;BME280;52200;53.490;14.376;2023-03-13T09:41:38;99494.81;;;7.25;100.00
65557;BME280;52200;53.490;14.376;2023-03-13T09:44:21;99493.53;;;7.39;100.00
65557;BME280;52200;53.490;14.376;2023-03-13T09:46:59;99482.03;;;7.30;100.00
65557;BME280;52200;53.490;14.376;2023-03-13T09:49:44;99480.19;;;7.35;100.00
65557;BME280;52200;53.490;14.376;2023-03-13T09:52:25;99469.88;;;7.41;100.00
65557;BME280;52200;53.490;14.376;2023-03-13T09:55:16;99463.88;;;7.44;100.00
65557;BME280;52200;53.490;14.376;2023-03-13T09:58:01;99461.59;;;7.62;100.00
65557;BME280;52200;53.490;14.376;2023-03-13T10:00:34;99459.28;;;7.55;100.00
65557;BME280;52200;53.490;14.376;2023-03-13T10:05:37;99449.72;;;7.87;100.00
65557;BME280;52200;53.490;14.376;2023-03-13T10:08:17;99453.44;;;7.79;100.00
65557;BME280;52200;53.490;14.376;2023-03-13T10:10:52;99460.00;;;7.83;100.00
65557;BME280;52200;53.490;14.376;2023-03-13T10:13:32;99462.47;;;7.84;100.00
65557;BME280;52200;53.490;14.376;2023-03-13T10:16:07;99460.88;;;7.82;100.00
65557;BME280;52200;53.490;14.376;2023-03-13T10:18:35;99454.94;;;7.83;100.00
65557;BME280;52200;53.490;14.376;2023-03-13T10:21:16;99439.69;;;7.86;100.00
65557;BME280;52200;53.490;14.376;2023-03-13T10:26:17;99459.94;;;7.84;100.00
65557;BME280;52200;53.490;14.376;2023-03-13T10:28:45;99437.69;;;7.94;100.00
65557;BME280;52200;53.490;14.376;2023-03-13T10:33:46;99443.06;;;8.09;100.00
65557;BME280;52200;53.490;14.376;2023-03-13T10:36:12;99438.00;;;8.09;100.00
65557;BME280;52200;53.490;14.376;2023-03-13T10:38:49;99436.28;;;8.09;100.00
65557;BME280;52200;53.490;14.376;2023-03-13T10:41:28;99426.53;;;8.00;100.00
65557;BME280;52200;53.490;14.376;2023-03-13T10:44:01;99429.69;;;8.05;100.00
65557;BME280;52200;53.490;14.376;2023-03-13T10:46:31;99428.91;;;8.04;100.00
65557;BME280;52200;53.490;14.376;2023-03-13T10:49:01;99433.50;;;8.17;100.00
65557;BME280;52200;53.490;14.376;2023-03-13T10:51:36;99422.69;;;8.12;100.00
65557;BME280;52200;53.490;14.376;2023-03-13T10:54:12;99419.84;;;8.21;100.00
65557;BME280;52200;53.490;14.376;2023-03-13T10:56:40;99416.59;;;8.17;100.00
65557;BME280;52200;53.490;14.376;2023-03-13T10:59:26;99420.78;;;8.18;100.00
65557;BME280;52200;53.490;14.376;2023-03-13T11:01:53;99411.41;;;8.43;100.00
65557;BME280;52200;53.490;14.376;2023-03-13T11:06:51;99397.38;;;8.35;100.00
65557;BME280;52200;53.490;14.376;2023-03-13T11:09:19;99396.78;;;8.51;100.00
65557;BME280;52200;53.490;14.376;2023-03-13T11:11:55;99384.91;;;8.53;100.00
65557;BME280;52200;53.490;14.376;2023-03-13T11:14:25;99379.06;;;8.51;100.00
65557;BME280;52200;53.490;14.376;2023-03-13T11:17:04;99374.13;;;8.68;100.00
65557;BME280;52200;53.490;14.376;2023-03-13T11:19:53;99382.00;;;8.83;100.00
65557;BME280;52200;53.490;14.376;2023-03-13T11:22:29;99369.59;;;8.77;100.00
65557;BME280;52200;53.490;14.376;2023-03-13T11:25:12;99372.66;;;8.83;100.00
65557;BME280;52200;53.490;14.376;2023-03-13T11:27:50;99358.06;;;8.90;100.00
65557;BME280;52200;53.490;14.376;2023-03-13T11:33:11;99359.91;;;9.26;100.00
65557;BME280;52200;53.490;14.376;2023-03-13T11:38:35;99365.59;;;9.31;100.00
65557;BME280;52200;53.490;14.376;2023-03-13T11:41:12;99360.41;;;9.34;100.00
65557;BME280;52200;53.490;14.376;2023-03-13T11:46:40;99353.91;;;9.48;100.00
65557;BME280;52200;53.490;14.376;2023-03-13T11:49:13;99373.75;;;9.57;100.00
65557;BME280;52200;53.490;14.376;2023-03-13T11:57:04;99365.13;;;9.42;100.00
65557;BME280;52200;53.490;14.376;2023-03-13T12:02:05;99358.97;;;9.48;100.00
65557;BME280;52200;53.490;14.376;2023-03-13T12:04:40;99358.97;;;9.48;100.00
65557;BME280;52200;53.490;14.376;2023-03-13T12:07:32;99356.50;;;9.46;100.00
65557;BME280;52200;53.490;14.376;2023-03-13T12:10:11;99345.13;;;9.55;100.00
65557;BME280;52200;53.490;14.376;2023-03-13T12:12:43;99343.28;;;9.78;100.00
65557;BME280;52200;53.490;14.376;2023-03-13T12:15:22;99332.53;;;9.73;100.00
65557;BME280;52200;53.490;14.376;2023-03-13T12:17:55;99325.03;;;9.70;100.00
65557;BME280;52200;53.490;14.376;2023-03-13T12:20:27;99332.59;;;9.89;100.00
65557;BME280;52200;53.490;14.376;2023-03-13T12:25:44;99325.13;;;10.22;100.00
65557;BME280;52200;53.490;14.376;2023-03-13T12:28:38;99333.34;;;10.27;100.00
65557;BME280;52200;53.490;14.376;2023-03-13T12:31:28;99329.09;;;10.28;100.00
65557;BME280;52200;53.490;14.376;2023-03-13T12:36:41;99327.03;;;10.54;100.00
65557;BME280;52200;53.490;14.376;2023-03-13T12:44:35;99324.69;;;10.67;100.00
65557;BME280;52200;53.490;14.376;2023-03-13T12:47:14;99323.34;;;10.77;100.00
65557;BME280;52200;53.490;14.376;2023-03-13T12:49:48;99324.59;;;10.86;100.00
65557;BME280;52200;53.490;14.376;2023-03-13T13:00:29;99314.75;;;11.13;100.00
65557;BME280;52200;53.490;14.376;2023-03-13T13:03:05;99319.72;;;11.15;100.00
65557;BME280;52200;53.490;14.376;2023-03-13T13:05:34;99314.34;;;11.37;100.00
65557;BME280;52200;53.490;14.376;2023-03-13T13:08:00;99310.00;;;11.55;100.00
65557;BME280;52200;53.490;14.376;2023-03-13T13:10:26;99311.22;;;11.64;100.00
65557;BME280;52200;53.490;14.376;2023-03-13T13:16:03;99300.88;;;11.67;100.00
65557;BME280;52200;53.490;14.376;2023-03-13T13:18:31;99287.66;;;11.76;100.00
65557;BME280;52200;53.490;14.376;2023-03-13T13:23:35;99290.47;;;11.55;100.00
65557;BME280;52200;53.490;14.376;2023-03-13T13:28:59;99282.69;;;11.58;100.00
65557;BME280;52200;53.490;14.376;2023-03-13T13:39:49;99281.41;;;12.28;98.39
65557;BME280;52200;53.490;14.376;2023-03-13T13:47:30;99277.63;;;12.05;98.64
65557;BME280;52200;53.490;14.376;2023-03-13T13:49:58;99272.19;;;12.11;98.75
65557;BME280;52200;53.490;14.376;2023-03-13T13:52:34;99279.56;;;12.16;98.37
65557;BME280;52200;53.490;14.376;2023-03-13T13:55:01;99289.28;;;12.23;97.51
65557;BME280;52200;53.490;14.376;2023-03-13T13:57:31;99275.88;;;12.36;96.99
65557;BME280;52200;53.490;14.376;2023-03-13T14:00:22;99275.06;;;12.50;96.70
65557;BME280;52200;53.490;14.376;2023-03-13T14:02:55;99269.44;;;12.59;95.98
65557;BME280;52200;53.490;14.376;2023-03-13T14:05:39;99279.34;;;12.78;94.74
65557;BME280;52200;53.490;14.376;2023-03-13T14:08:15;99266.44;;;12.96;93.54
65557;BME280;52200;53.490;14.376;2023-03-13T14:10:45;99261.81;;;12.73;93.19
65557;BME280;52200;53.490;14.376;2023-03-13T14:13:20;99264.06;;;12.78;93.56
65557;BME280;52200;53.490;14.376;2023-03-13T14:15:47;99257.72;;;12.71;93.87
65557;BME280;52200;53.490;14.376;2023-03-13T14:18:33;99265.50;;;12.53;94.77
65557;BME280;52200;53.490;14.376;2023-03-13T14:21:01;99257.69;;;12.42;94.96